Latest Weather Observations for Adele Island

IDW60801

Issued at 5:32 pm WST Wednesday 29 July 2015 (issued every 30 minutes, with the page automatically refreshed every 10 minutes)

About weather observations | Map of weather stations | Latest weather observations for WA | Other Formats
Station Details ID: 200735 Name: ADELE ISLAND Lat: -15.51 Lon: 123.16 Height: 4.6 m
Data from the previous 72 hours. | See also: Recent months for locations in Western Australia
Date/Time
WST
Temp
°C
App
Temp
°C
Dew
Point
Rel
Hum
%
Delta-T
°C
Wind Press
QNH
hPa
Press
MSL
hPa
Rain
since 9 am
mm
Dir
 
Spd
km/h
Gust
km/h
Spd
kts
Gust
kts
29/05:30pm 25.9 - - - - NNE 11 15 6 8 1016.2 1016.1 -
29/05:00pm 26.1 - - - - NNE 15 19 8 10 1015.9 1015.8 -
29/04:30pm 26.1 - - - - NNE 11 15 6 8 1016.0 1015.9 -
29/04:00pm 26.6 - - - - NNE 9 13 5 7 1016.0 1015.9 -
29/03:30pm 26.4 - - - - NE 11 17 6 9 1016.2 1016.1 -
29/03:00pm 26.9 - - - - NE 13 17 7 9 1016.1 1016.0 -
29/02:30pm 26.7 - - - - NE 15 20 8 11 1016.2 1016.1 -
29/02:00pm 26.8 - - - - ENE 17 20 9 11 1016.4 1016.3 -
29/01:30pm 26.7 - - - - E 20 22 11 12 1016.7 1016.6 -
29/01:00pm 27.1 - - - - E 22 28 12 15 1017.0 1016.9 -
29/12:30pm 27.7 - - - - E 22 28 12 15 1017.5 1017.4 -
29/12:00pm 27.2 - - - - E 24 28 13 15 1018.0 1017.9 -
29/11:30am 27.8 - - - - E 24 32 13 17 1018.3 1018.2 -
29/11:00am 27.5 - - - - E 22 28 12 15 1018.7 1018.6 -
29/10:30am 27.7 - - - - E 19 24 10 13 1019.0 1018.9 -
29/10:00am 26.8 - - - - ESE 19 24 10 13 1019.2 1019.1 -
29/09:30am 26.4 - - - - SE 17 20 9 11 1019.3 1019.2 -
29/09:00am 26.3 - - - - SE 15 19 8 10 1019.4 1019.3 -
29/08:30am 25.9 - - - - SE 13 15 7 8 1019.3 1019.2 -
29/08:00am 25.5 - - - - SSE 9 11 5 6 1019.2 1019.1 -
29/07:30am 24.7 - - - - E 7 7 4 4 1018.8 1018.7 -
29/07:00am 24.5 - - - - WNW 7 9 4 5 1018.4 1018.3 -
29/06:30am 24.4 - - - - W 7 7 4 4 1018.3 1018.2 -
29/06:00am 24.3 - - - - NE 6 6 3 3 1018.2 1018.1 -
29/05:30am 24.5 - - - - NE 4 7 2 4 1017.9 1017.8 -
29/05:00am 24.6 - - - - CALM 0 0 0 0 1017.6 1017.5 -
29/04:30am 24.6 - - - - CALM 0 0 0 0 1017.6 1017.5 -
29/04:00am 24.6 - - - - CALM 0 0 0 0 1017.7 1017.6 -
29/03:30am 24.6 - - - - CALM 0 0 0 0 1017.8 1017.7 -
29/03:00am 24.8 - - - - CALM 0 0 0 0 1017.8 1017.7 -
29/02:30am 25.0 - - - - CALM 0 0 0 0 1017.8 1017.7 -
29/02:00am 24.8 - - - - CALM 0 0 0 0 1017.9 1017.8 -
29/01:30am 25.3 - - - - N 6 6 3 3 1017.9 1017.8 -
29/01:00am 25.3 - - - - SE 7 7 4 4 1017.8 1017.7 -
29/12:30am 25.3 - - - - CALM 0 0 0 0 1018.0 1017.9 -
29/12:00am 25.3 - - - - N 4 6 2 3 1018.2 1018.1 -
 
Date/Time
WST
Temp
°C
App
Temp
°C
Dew
Point
Rel
Hum
%
Delta-T
°C
Wind Press
QNH
hPa
Press
MSL
hPa
Rain
since 9 am
mm
Dir
 
Spd
km/h
Gust
km/h
Spd
kts
Gust
kts
28/11:30pm 25.7 - - - - N 7 7 4 4 1018.2 1018.1 -
28/11:00pm 25.6 - - - - N 6 7 3 4 1018.4 1018.3 -
28/10:30pm 25.7 - - - - N 6 7 3 4 1018.5 1018.4 -
28/10:00pm 26.0 - - - - NNW 7 9 4 5 1018.6 1018.5 -
28/09:30pm 26.2 - - - - NNW 7 9 4 5 1018.6 1018.5 -
28/09:00pm 26.3 - - - - NNW 9 11 5 6 1018.5 1018.4 -
28/08:30pm 26.1 - - - - NNW 11 13 6 7 1018.3 1018.2 -
28/08:00pm 26.5 - - - - NNW 15 17 8 9 1018.0 1017.9 -
28/07:30pm 26.5 - - - - NNW 17 17 9 9 1017.9 1017.8 -
28/07:00pm 26.5 - - - - NNW 15 17 8 9 1017.7 1017.6 -
28/06:30pm 26.7 - - - - NW 11 13 6 7 1017.5 1017.4 -
28/06:00pm 26.2 - - - - CALM 0 0 0 0 1017.3 1017.2 -
28/05:30pm 26.8 - - - - CALM 0 0 0 0 1017.2 1017.1 -
28/05:00pm 27.2 - - - - CALM 0 0 0 0 1017.1 1017.0 -
28/04:30pm 27.2 - - - - ENE 6 7 3 4 1017.0 1016.9 -
28/04:00pm 27.7 - - - - N 4 9 2 5 1016.7 1016.6 -
28/03:30pm 27.5 - - - - NNE 7 9 4 5 1016.5 1016.4 -
28/03:00pm 28.0 - - - - NE 9 11 5 6 1016.6 1016.5 -
28/02:30pm 27.6 - - - - ENE 11 15 6 8 1016.8 1016.7 -
28/02:00pm 27.7 - - - - E 11 15 6 8 1017.0 1016.9 -
28/01:30pm 28.1 - - - - E 17 20 9 11 1017.4 1017.3 -
28/01:00pm 27.4 - - - - E 19 22 10 12 1017.7 1017.6 -
28/12:30pm 27.9 - - - - E 20 24 11 13 1018.1 1018.0 -
28/12:00pm 28.0 - - - - ESE 20 26 11 14 1018.4 1018.3 -
28/11:30am 28.3 - - - - E 22 30 12 16 1018.7 1018.6 -
28/11:00am 28.6 - - - - E 22 30 12 16 1019.0 1018.9 -
28/10:30am 28.3 - - - - E 22 30 12 16 1019.3 1019.2 -
28/10:00am 28.1 - - - - E 24 32 13 17 1019.4 1019.3 -
28/09:30am 28.3 - - - - E 24 30 13 16 1019.6 1019.5 -
28/09:00am 27.6 - - - - E 22 28 12 15 1019.5 1019.4 -
28/08:30am 27.0 - - - - ESE 22 26 12 14 1019.3 1019.2 -
28/08:00am 26.8 - - - - SE 17 20 9 11 1018.9 1018.8 -
28/07:30am 27.1 - - - - ENE 7 9 4 5 1018.4 1018.3 -
28/07:00am 27.1 - - - - E 6 7 3 4 1018.2 1018.1 -
28/06:30am 26.1 - - - - SE 6 7 3 4 1018.0 1017.9 -
28/06:00am 25.9 - - - - NE 6 9 3 5 1017.5 1017.4 -
28/05:30am 26.1 - - - - NNE 6 7 3 4 1017.0 1016.9 -
28/05:00am 26.4 - - - - N 9 9 5 5 1016.5 1016.4 -
28/04:30am 26.5 - - - - N 9 11 5 6 1016.3 1016.2 -
28/04:00am 26.4 - - - - N 7 9 4 5 1016.3 1016.2 -
28/03:30am 26.6 - - - - N 9 11 5 6 1016.2 1016.1 -
28/03:00am 26.6 - - - - N 11 13 6 7 1016.1 1016.0 -
28/02:30am 26.7 - - - - NNW 13 13 7 7 1015.9 1015.8 -
28/02:00am 26.5 - - - - N 11 13 6 7 1015.9 1015.8 -
28/01:30am 26.3 - - - - NNE 7 7 4 4 1016.1 1016.0 -
28/01:00am 25.8 - - - - N 6 7 3 4 1016.4 1016.3 -
28/12:30am 26.9 - - - - SW 17 17 9 9 1016.5 1016.4 -
28/12:00am 27.6 - - - - SSW 17 19 9 10 1016.8 1016.7 -
 
Date/Time
WST
Temp
°C
App
Temp
°C
Dew
Point
Rel
Hum
%
Delta-T
°C
Wind Press
QNH
hPa
Press
MSL
hPa
Rain
since 9 am
mm
Dir
 
Spd
km/h
Gust
km/h
Spd
kts
Gust
kts
27/11:30pm 28.1 - - - - SW 13 17 7 9 1017.1 1017.0 -
27/11:00pm 27.9 - - - - W 9 11 5 6 1017.3 1017.2 -
27/10:30pm 27.9 - - - - SW 11 11 6 6 1017.3 1017.2 -
27/10:00pm 26.9 - - - - S 17 19 9 10 1017.6 1017.5 -
27/09:30pm 26.4 - - - - SSW 17 17 9 9 1017.4 1017.3 -
27/09:00pm 26.8 - - - - SSW 15 15 8 8 1017.3 1017.2 -
27/08:30pm 26.4 - - - - SSW 17 17 9 9 1017.2 1017.1 -
27/08:00pm 26.2 - - - - S 15 17 8 9 1017.1 1017.0 -
27/07:30pm 26.2 - - - - S 15 17 8 9 1016.6 1016.5 -
27/07:00pm 25.4 - - - - S 13 13 7 7 1016.2 1016.1 -
27/06:30pm 25.3 - - - - S 13 15 7 8 1016.0 1015.9 -
27/06:00pm 25.4 - - - - S 13 15 7 8 1015.6 1015.5 -
27/05:30pm 26.0 - - - - S 11 13 6 7 1015.5 1015.4 -
27/05:00pm 26.9 - - - - SSE 13 17 7 9 1015.3 1015.2 -
27/04:30pm 27.0 - - - - SSE 17 19 9 10 1015.3 1015.2 -
27/04:00pm 27.6 - - - - SSE 17 20 9 11 1015.3 1015.2 -
27/03:30pm 27.3 - - - - SSE 17 20 9 11 1015.2 1015.1 -
27/03:00pm 27.5 - - - - SSE 17 24 9 13 1015.3 1015.2 -
27/02:30pm 27.4 - - - - SE 17 22 9 12 1015.4 1015.3 -
27/02:00pm 27.7 - - - - SE 19 24 10 13 1015.5 1015.4 -
27/01:30pm 27.9 - - - - SE 20 24 11 13 1015.8 1015.7 -
27/01:00pm 27.5 - - - - SE 20 26 11 14 1016.0 1015.9 -
27/12:30pm 27.6 - - - - SE 20 24 11 13 1016.2 1016.1 -
27/12:00pm 27.1 - - - - SE 22 28 12 15 1016.6 1016.5 -
27/11:30am 27.5 - - - - SE 22 30 12 16 1016.9 1016.8 -
27/11:00am 27.4 - - - - SE 26 32 14 17 1017.2 1017.1 -
27/10:30am 26.8 - - - - SE 26 32 14 17 1017.5 1017.4 -
27/10:00am 27.0 - - - - SE 26 35 14 19 1017.9 1017.8 -
27/09:30am 26.0 - - - - SSE 30 35 16 19 1018.3 1018.2 -
27/09:00am 26.2 - - - - SSE 28 33 15 18 1018.3 1018.2 -
27/08:30am 26.0 - - - - SSE 26 35 14 19 1018.2 1018.1 -
27/08:00am 25.7 - - - - SE 24 35 13 19 1018.0 1017.9 -
27/07:30am 25.4 - - - - SSE 24 32 13 17 1017.8 1017.7 -
27/07:00am 24.8 - - - - SSE 22 28 12 15 1017.7 1017.6 -
27/06:30am 24.9 - - - - SSE 22 30 12 16 1017.2 1017.1 -
27/06:00am 24.4 - - - - SSE 20 26 11 14 1017.3 1017.2 -
27/05:30am 24.7 - - - - SSE 22 28 12 15 1017.0 1016.9 -
27/05:00am 24.3 - - - - SE 22 28 12 15 1016.8 1016.7 -
27/04:30am 24.4 - - - - SSE 22 28 12 15 1016.7 1016.6 -
27/04:00am 24.3 - - - - SSE 20 24 11 13 1016.8 1016.7 -
27/03:30am 24.2 - - - - SSE 17 20 9 11 1016.8 1016.7 -
27/03:00am 24.5 - - - - SSE 17 19 9 10 1016.8 1016.7 -
27/02:30am 24.8 - - - - SSE 17 19 9 10 1017.0 1016.9 -
27/02:00am 25.7 - - - - SSE 17 19 9 10 1017.0 1016.9 -
27/01:30am 25.7 - - - - SE 17 19 9 10 1017.2 1017.1 -
27/01:00am 25.6 - - - - SE 15 15 8 8 1017.4 1017.3 -
27/12:30am 25.4 - - - - SE 15 17 8 9 1017.6 1017.5 -
27/12:00am 25.3 - - - - ESE 15 17 8 9 1017.7 1017.6 -
 
Date/Time
WST
Temp
°C
App
Temp
°C
Dew
Point
Rel
Hum
%
Delta-T
°C
Wind Press
QNH
hPa
Press
MSL
hPa
Rain
since 9 am
mm
Dir
 
Spd
km/h
Gust
km/h
Spd
kts
Gust
kts
26/11:30pm 25.4 - - - - ESE 15 17 8 9 1017.9 1017.8 -
26/11:00pm 25.4 - - - - ESE 15 15 8 8 1018.1 1018.0 -
26/10:30pm 25.8 - - - - ESE 17 20 9 11 1018.1 1018.0 -
26/10:00pm 26.1 - - - - ESE 19 20 10 11 1018.0 1017.9 -
26/09:30pm 26.3 - - - - SE 20 24 11 13 1017.8 1017.7 -
26/09:00pm 26.6 - - - - SE 20 26 11 14 1017.7 1017.6 -
26/08:30pm 26.8 - - - - SE 22 28 12 15 1017.7 1017.6 -
26/08:00pm 26.4 - - - - SE 19 24 10 13 1017.6 1017.5 -
26/07:30pm 26.3 - - - - SE 17 22 9 12 1017.4 1017.3 -
26/07:00pm 25.6 - - - - SE 15 19 8 10 1017.0 1016.9 -
26/06:30pm 24.9 - - - - SE 13 15 7 8 1016.7 1016.6 -
26/06:00pm 25.3 - - - - SE 13 17 7 9 1016.5 1016.4 -

Other Formats:

Comma delimited format used in spreadsheet applications
http://www.bom.gov.au/fwo/IDW60801/IDW60801.94210.axf

JavaScript Object Notation format (JSON) in row-major order
http://www.bom.gov.au/fwo/IDW60801/IDW60801.94210.json